Terminal Aerodrome Forecast
Issued by NWS Upton, NY

Home | Current Version | Previous Version | Text Only | Print | Product List | Glossary On
Versions: 1 2 3 4 5 6 7 8 9 10 11 12 13 14 15 16 17 18 19 20 21 22 23 24 25 26 27 28 29
445
FTUS41 KOKX 240832 AAA
TAFBDR
TAF AMD
KBDR 240832Z 2409/2506 VRB02KT P6SM FEW060
     FM241300 35006KT P6SM FEW060
     FM241600 32008KT P6SM FEW060
     FM241700 26008KT P6SM FEW060
     FM241800 23008KT P6SM FEW060
     FM242000 26008KT P6SM FEW060
     FM242300 30006KT P6SM FEW060
     FM250200 34005KT P6SM SCT060=

USA.gov is the U.S. government's official web portal to all federal, state and local government web resources and services.